Crescent Valley, Nevada
Current Conditions -  °F | °C
As of 5:56 PM on Saturday 25 Oct 2014 (Local Time) from KEKO Reporting Station
Clear Clear  
Wind Chill: 21°   Ceiling: Unl
Heat Index: 21°   Visibility: 10mi
Dew Point: -8°   Wind: 21mph
Humidity: 14%   Direction: 240°WSW
Pressure: 29.85"   Gusts: 30mph
Location:  40.42°N, 116.58°W
Report Text: KEKO 260056Z AUTO 24018G26KT 10SM CLR 21/M08 A2985 RMK AO2 PK WND 24028/0035 SLP063 T02061078
Loading
Personal Weather Stations






























Interactive Weather Map
Tropical Storm Tracking
New forecast layout! Learn more

10-Day Weather Forecast

Advertisements
Track Severe Weather on mobile